sensor_id;sensor_type;location;lat;lon;timestamp;pressure;altitude;pressure_sealevel;temperature;humidity
51293;BME280;37377;45.186;9.778;2024-02-21T08:42:00;102260;;;18.0;44.6
51293;BME280;37377;45.186;9.778;2024-02-21T08:43:00;102250;;;18.2;44.3
51293;BME280;37377;45.186;9.778;2024-02-21T08:44:00;102250;;;18.2;44.3
51293;BME280;37377;45.186;9.778;2024-02-21T08:45:00;102260;;;18.7;42.9
51293;BME280;37377;45.186;9.778;2024-02-21T08:46:00;102260;;;18.7;42.9
51293;BME280;37377;45.186;9.778;2024-02-21T08:47:00;102250;;;18.9;41.8
51293;BME280;37377;45.186;9.778;2024-02-21T08:48:00;102250;;;18.9;41.8
51293;BME280;37377;45.186;9.778;2024-02-21T08:49:00;102250;;;18.7;42.1
51293;BME280;37377;45.186;9.778;2024-02-21T08:50:00;102250;;;18.7;42.1
51293;BME280;37377;45.186;9.778;2024-02-21T08:51:00;102250;;;18.6;42.1
51293;BME280;37377;45.186;9.778;2024-02-21T08:52:00;102250;;;18.6;42.1
51293;BME280;37377;45.186;9.778;2024-02-21T08:53:00;102240;;;19.1;40.7
51293;BME280;37377;45.186;9.778;2024-02-21T08:54:00;102240;;;19.1;40.7
51293;BME280;37377;45.186;9.778;2024-02-21T08:55:00;102240;;;18.1;42.6
51293;BME280;37377;45.186;9.778;2024-02-21T08:56:00;102240;;;18.1;42.6
51293;BME280;37377;45.186;9.778;2024-02-21T08:57:00;102240;;;18.9;41.9
51293;BME280;37377;45.186;9.778;2024-02-21T08:58:00;102240;;;18.9;41.9
51293;BME280;37377;45.186;9.778;2024-02-21T08:59:00;102240;;;19.2;41.5
51293;BME280;37377;45.186;9.778;2024-02-21T09:00:00;102240;;;19.2;41.5
51293;BME280;37377;45.186;9.778;2024-02-21T09:01:00;102240;;;18.8;41.9
51293;BME280;37377;45.186;9.778;2024-02-21T09:02:00;102240;;;18.8;41.9
51293;BME280;37377;45.186;9.778;2024-02-21T09:03:00;102240;;;19.2;42.3
51293;BME280;37377;45.186;9.778;2024-02-21T09:04:00;102240;;;19.2;42.3
51293;BME280;37377;45.186;9.778;2024-02-21T09:05:00;102240;;;17.8;43.1
51293;BME280;37377;45.186;9.778;2024-02-21T09:06:00;102240;;;17.8;43.1
51293;BME280;37377;45.186;9.778;2024-02-21T09:07:00;102240;;;18.2;43.8
51293;BME280;37377;45.186;9.778;2024-02-21T09:08:00;102240;;;18.2;43.8
51293;BME280;37377;45.186;9.778;2024-02-21T09:09:00;102240;;;19.1;41.8
51293;BME280;37377;45.186;9.778;2024-02-21T09:10:00;102240;;;19.1;41.8
51293;BME280;37377;45.186;9.778;2024-02-21T09:11:00;102240;;;18.8;42.6
51293;BME280;37377;45.186;9.778;2024-02-21T09:12:00;102240;;;18.8;42.6
51293;BME280;37377;45.186;9.778;2024-02-21T09:13:00;102240;;;18.7;43.7
51293;BME280;37377;45.186;9.778;2024-02-21T09:14:00;102240;;;18.7;43.7
51293;BME280;37377;45.186;9.778;2024-02-21T09:15:00;102240;;;18.8;43.2
51293;BME280;37377;45.186;9.778;2024-02-21T09:16:00;102240;;;18.8;43.2
51293;BME280;37377;45.186;9.778;2024-02-21T09:17:00;102240;;;17.4;45.4
51293;BME280;37377;45.186;9.778;2024-02-21T09:18:00;102240;;;17.4;45.4
51293;BME280;37377;45.186;9.778;2024-02-21T09:19:00;102240;;;17.4;45.4
51293;BME280;37377;45.186;9.778;2024-02-21T09:24:00;102240;;;15.8;48.8
51293;BME280;37377;45.186;9.778;2024-02-21T09:25:00;102240;;;15.8;48.8
51293;BME280;37377;45.186;9.778;2024-02-21T09:26:00;102240;;;15.8;48.8
51293;BME280;37377;45.186;9.778;2024-02-21T09:30:00;102220;;;19.2;42.7
51293;BME280;37377;45.186;9.778;2024-02-21T09:31:00;102220;;;19.2;42.7
51293;BME280;37377;45.186;9.778;2024-02-21T09:32:00;102220;;;19.2;42.7
51293;BME280;37377;45.186;9.778;2024-02-21T09:50:00;102210;;;18.3;42.8
51293;BME280;37377;45.186;9.778;2024-02-21T09:51:01;102210;;;18.3;43.1
51293;BME280;37377;45.186;9.778;2024-02-21T09:52:00;102210;;;18.3;43.1
51293;BME280;37377;45.186;9.778;2024-02-21T09:56:00;102220;;;16.9;46.2
51293;BME280;37377;45.186;9.778;2024-02-21T09:57:00;102220;;;16.2;47.9
51293;BME280;37377;45.186;9.778;2024-02-21T09:58:01;102220;;;16.2;47.9
51293;BME280;37377;45.186;9.778;2024-02-21T09:59:01;102220;;;15.4;50.1
51293;BME280;37377;45.186;9.778;2024-02-21T10:00:00;102220;;;15.4;50.1
51293;BME280;37377;45.186;9.778;2024-02-21T10:39:00;102220;;;17.4;47.6
51293;BME280;37377;45.186;9.778;2024-02-21T10:40:00;102220;;;17.4;47.6
51293;BME280;37377;45.186;9.778;2024-02-21T10:41:00;102220;;;17.1;48.0
51293;BME280;37377;45.186;9.778;2024-02-21T10:42:00;102220;;;17.1;48.0
51293;BME280;37377;45.186;9.778;2024-02-21T11:21:00;102160;;;16.8;47.0
51293;BME280;37377;45.186;9.778;2024-02-21T11:22:00;102160;;;16.8;47.0
51293;BME280;37377;45.186;9.778;2024-02-21T11:24:00;102150;;;16.9;47.5
51293;BME280;37377;45.186;9.778;2024-02-21T11:27:11;102150;;;16.1;49.5
51293;BME280;37377;45.186;9.778;2024-02-21T11:28:00;102150;;;16.1;49.5
51293;BME280;37377;45.186;9.778;2024-02-21T11:29:00;102150;;;16.1;49.5
51293;BME280;37377;45.186;9.778;2024-02-21T11:30:00;102150;;;16.1;49.5
51293;BME280;37377;45.186;9.778;2024-02-21T14:17:00;101840;;;16.4;51.2
51293;BME280;37377;45.186;9.778;2024-02-21T14:18:00;101840;;;15.9;54.0
51293;BME280;37377;45.186;9.778;2024-02-21T14:19:00;101840;;;15.9;54.0
51293;BME280;37377;45.186;9.778;2024-02-21T14:20:00;101840;;;15.9;54.0
51293;BME280;37377;45.186;9.778;2024-02-21T14:42:00;101800;;;16.5;50.9
51293;BME280;37377;45.186;9.778;2024-02-21T14:43:00;101800;;;16.5;50.9
51293;BME280;37377;45.186;9.778;2024-02-21T14:44:00;101800;;;16.5;50.9
51293;BME280;37377;45.186;9.778;2024-02-21T14:45:00;101800;;;16.5;50.9
51293;BME280;37377;45.186;9.778;2024-02-21T14:46:00;101790;;;16.6;50.9
51293;BME280;37377;45.186;9.778;2024-02-21T14:47:00;101790;;;16.6;50.9
51293;BME280;37377;45.186;9.778;2024-02-21T14:48:00;101790;;;16.6;50.9
51293;BME280;37377;45.186;9.778;2024-02-21T14:59:00;101770;;;16.4;50.5
51293;BME280;37377;45.186;9.778;2024-02-21T15:00:00;101770;;;16.4;50.5
51293;BME280;37377;45.186;9.778;2024-02-21T15:02:00;101760;;;16.2;50.8
51293;BME280;37377;45.186;9.778;2024-02-21T15:03:00;101760;;;16.2;50.8
51293;BME280;37377;45.186;9.778;2024-02-21T15:04:00;101760;;;16.2;50.8
51293;BME280;37377;45.186;9.778;2024-02-21T15:16:00;101760;;;15.9;51.5
51293;BME280;37377;45.186;9.778;2024-02-21T15:17:00;101760;;;15.9;51.5
51293;BME280;37377;45.186;9.778;2024-02-21T15:19:00;101760;;;16.2;50.3
51293;BME280;37377;45.186;9.778;2024-02-21T15:20:00;101760;;;16.4;50.7
51293;BME280;37377;45.186;9.778;2024-02-21T15:21:00;101760;;;16.4;50.7
51293;BME280;37377;45.186;9.778;2024-02-21T15:22:00;101760;;;16.4;50.7
51293;BME280;37377;45.186;9.778;2024-02-21T15:37:00;101740;;;16.4;51.4
51293;BME280;37377;45.186;9.778;2024-02-21T15:38:00;101740;;;16.4;51.4
51293;BME280;37377;45.186;9.778;2024-02-21T15:42:00;101730;;;16.3;51.8
51293;BME280;37377;45.186;9.778;2024-02-21T15:43:00;101730;;;16.3;51.8
51293;BME280;37377;45.186;9.778;2024-02-21T15:50:00;101730;;;16.2;52.1
51293;BME280;37377;45.186;9.778;2024-02-21T15:51:00;101730;;;16.2;52.1
51293;BME280;37377;45.186;9.778;2024-02-21T15:52:00;101730;;;16.2;52.1
51293;BME280;37377;45.186;9.778;2024-02-21T15:58:00;101720;;;16.0;52.4
51293;BME280;37377;45.186;9.778;2024-02-21T15:59:00;101720;;;16.0;52.4
51293;BME280;37377;45.186;9.778;2024-02-21T16:00:00;101720;;;16.0;52.4
51293;BME280;37377;45.186;9.778;2024-02-21T16:01:00;101720;;;16.0;52.4
51293;BME280;37377;45.186;9.778;2024-02-21T16:02:00;101720;;;16.0;52.4
51293;BME280;37377;45.186;9.778;2024-02-21T16:03:00;101720;;;16.0;52.4
51293;BME280;37377;45.186;9.778;2024-02-21T16:04:00;101720;;;16.0;52.4
51293;BME280;37377;45.186;9.778;2024-02-21T16:09:00;101720;;;15.9;52.6
51293;BME280;37377;45.186;9.778;2024-02-21T16:10:00;101720;;;15.9;52.8
51293;BME280;37377;45.186;9.778;2024-02-21T16:11:00;101720;;;15.9;52.8
51293;BME280;37377;45.186;9.778;2024-02-21T16:12:00;101720;;;15.9;52.8
51293;BME280;37377;45.186;9.778;2024-02-21T16:13:00;101720;;;15.9;52.9
51293;BME280;37377;45.186;9.778;2024-02-21T16:14:00;101720;;;15.9;52.9
51293;BME280;37377;45.186;9.778;2024-02-21T16:15:00;101720;;;15.9;52.9
51293;BME280;37377;45.186;9.778;2024-02-21T16:16:00;101720;;;15.9;52.9
51293;BME280;37377;45.186;9.778;2024-02-21T16:17:00;101720;;;15.9;52.9
51293;BME280;37377;45.186;9.778;2024-02-21T16:18:00;101720;;;15.9;52.9
51293;BME280;37377;45.186;9.778;2024-02-21T16:19:00;101720;;;15.9;52.9
51293;BME280;37377;45.186;9.778;2024-02-21T16:20:00;101720;;;15.5;53.8
51293;BME280;37377;45.186;9.778;2024-02-21T16:21:00;101720;;;15.5;53.8
51293;BME280;37377;45.186;9.778;2024-02-21T16:22:00;101720;;;15.6;53.8
51293;BME280;37377;45.186;9.778;2024-02-21T16:23:00;101720;;;15.6;53.8
51293;BME280;37377;45.186;9.778;2024-02-21T16:28:00;101720;;;15.7;53.9
51293;BME280;37377;45.186;9.778;2024-02-21T16:29:00;101720;;;15.7;53.9
51293;BME280;37377;45.186;9.778;2024-02-21T16:30:00;101720;;;15.7;53.9
51293;BME280;37377;45.186;9.778;2024-02-21T16:44:00;101730;;;15.0;58.7
51293;BME280;37377;45.186;9.778;2024-02-21T16:45:00;101730;;;15.0;58.7
51293;BME280;37377;45.186;9.778;2024-02-21T16:46:00;101730;;;15.0;58.7
51293;BME280;37377;45.186;9.778;2024-02-21T16:47:00;101720;;;15.0;58.7
51293;BME280;37377;45.186;9.778;2024-02-21T16:48:00;101730;;;14.7;60.1
51293;BME280;37377;45.186;9.778;2024-02-21T16:49:00;101730;;;14.7;60.1
51293;BME280;37377;45.186;9.778;2024-02-21T16:50:00;101730;;;14.7;60.1
51293;BME280;37377;45.186;9.778;2024-02-21T16:51:00;101730;;;14.7;60.1
51293;BME280;37377;45.186;9.778;2024-02-21T16:55:00;101720;;;14.5;61.3
51293;BME280;37377;45.186;9.778;2024-02-21T16:56:00;101720;;;14.5;61.3
51293;BME280;37377;45.186;9.778;2024-02-21T16:57:00;101720;;;14.5;61.3
51293;BME280;37377;45.186;9.778;2024-02-21T16:58:00;101720;;;14.5;61.3
51293;BME280;37377;45.186;9.778;2024-02-21T17:02:00;101730;;;14.3;61.5
51293;BME280;37377;45.186;9.778;2024-02-21T17:03:00;101730;;;14.3;61.5
51293;BME280;37377;45.186;9.778;2024-02-21T17:04:00;101730;;;14.3;61.5
51293;BME280;37377;45.186;9.778;2024-02-21T17:05:00;101730;;;14.3;61.5
51293;BME280;37377;45.186;9.778;2024-02-21T17:06:00;101730;;;14.3;61.5
51293;BME280;37377;45.186;9.778;2024-02-21T17:30:00;101740;;;13.4;62.1
51293;BME280;37377;45.186;9.778;2024-02-21T17:31:00;101740;;;13.4;62.1
51293;BME280;37377;45.186;9.778;2024-02-21T17:32:00;101740;;;13.4;62.1
51293;BME280;37377;45.186;9.778;2024-02-21T17:33:00;101740;;;13.4;62.1
51293;BME280;37377;45.186;9.778;2024-02-21T17:34:00;101740;;;13.4;62.1
51293;BME280;37377;45.186;9.778;2024-02-21T17:45:00;101740;;;13.0;67.0
51293;BME280;37377;45.186;9.778;2024-02-21T17:46:00;101740;;;13.0;67.0
51293;BME280;37377;45.186;9.778;2024-02-21T17:47:00;101740;;;13.0;67.0
51293;BME280;37377;45.186;9.778;2024-02-21T17:48:00;101740;;;13.0;67.0
51293;BME280;37377;45.186;9.778;2024-02-21T17:49:00;101740;;;13.0;67.0
51293;BME280;37377;45.186;9.778;2024-02-21T17:50:00;101740;;;13.0;67.0
51293;BME280;37377;45.186;9.778;2024-02-21T17:51:00;101740;;;13.0;67.0
51293;BME280;37377;45.186;9.778;2024-02-21T17:56:00;101740;;;12.9;66.2
51293;BME280;37377;45.186;9.778;2024-02-21T17:57:00;101740;;;12.9;66.2
51293;BME280;37377;45.186;9.778;2024-02-21T17:58:00;101740;;;12.9;66.2
51293;BME280;37377;45.186;9.778;2024-02-21T17:59:00;101740;;;12.9;66.2
51293;BME280;37377;45.186;9.778;2024-02-21T18:00:00;101740;;;12.9;66.2
51293;BME280;37377;45.186;9.778;2024-02-21T18:01:00;101740;;;12.9;66.2
51293;BME280;37377;45.186;9.778;2024-02-21T18:02:00;101740;;;12.9;66.2
51293;BME280;37377;45.186;9.778;2024-02-21T18:08:00;101740;;;12.9;66.2
51293;BME280;37377;45.186;9.778;2024-02-21T18:09:00;101740;;;12.9;66.2
